sensor_id;sensor_type;location;lat;lon;timestamp;P1;durP1;ratioP1;P2;durP2;ratioP2
11931;SDS011;6025;51.368;6.788;2023-03-14T00:00:06;7.72;;;2.00;;
11931;SDS011;6025;51.368;6.788;2023-03-14T00:05:00;4.93;;;1.52;;
11931;SDS011;6025;51.368;6.788;2023-03-14T00:09:57;3.53;;;1.50;;
11931;SDS011;6025;51.368;6.788;2023-03-14T00:14:49;3.63;;;1.52;;
11931;SDS011;6025;51.368;6.788;2023-03-14T00:19:40;5.78;;;1.60;;
11931;SDS011;6025;51.368;6.788;2023-03-14T00:24:32;4.65;;;1.50;;
11931;SDS011;6025;51.368;6.788;2023-03-14T00:29:25;6.25;;;1.35;;
11931;SDS011;6025;51.368;6.788;2023-03-14T00:34:16;6.38;;;1.60;;
11931;SDS011;6025;51.368;6.788;2023-03-14T00:39:08;3.67;;;1.00;;
11931;SDS011;6025;51.368;6.788;2023-03-14T00:43:59;2.38;;;1.00;;
11931;SDS011;6025;51.368;6.788;2023-03-14T00:48:52;3.75;;;0.98;;
11931;SDS011;6025;51.368;6.788;2023-03-14T00:53:44;2.35;;;0.60;;
11931;SDS011;6025;51.368;6.788;2023-03-14T00:58:36;4.78;;;0.88;;
11931;SDS011;6025;51.368;6.788;2023-03-14T01:03:27;5.10;;;1.15;;
11931;SDS011;6025;51.368;6.788;2023-03-14T01:08:20;7.50;;;1.67;;
11931;SDS011;6025;51.368;6.788;2023-03-14T01:13:13;2.17;;;1.00;;
11931;SDS011;6025;51.368;6.788;2023-03-14T01:18:04;5.70;;;1.30;;
11931;SDS011;6025;51.368;6.788;2023-03-14T01:22:56;5.97;;;1.50;;
11931;SDS011;6025;51.368;6.788;2023-03-14T01:27:49;7.55;;;1.40;;
11931;SDS011;6025;51.368;6.788;2023-03-14T01:32:41;3.90;;;1.17;;
11931;SDS011;6025;51.368;6.788;2023-03-14T01:37:32;4.30;;;1.00;;
11931;SDS011;6025;51.368;6.788;2023-03-14T01:42:24;5.37;;;1.20;;
11931;SDS011;6025;51.368;6.788;2023-03-14T01:47:17;5.47;;;1.00;;
11931;SDS011;6025;51.368;6.788;2023-03-14T01:52:09;4.70;;;1.02;;
11931;SDS011;6025;51.368;6.788;2023-03-14T01:57:03;5.18;;;1.27;;
11931;SDS011;6025;51.368;6.788;2023-03-14T02:01:57;6.20;;;1.10;;
11931;SDS011;6025;51.368;6.788;2023-03-14T02:06:52;5.32;;;1.08;;
11931;SDS011;6025;51.368;6.788;2023-03-14T02:11:47;5.17;;;1.07;;
11931;SDS011;6025;51.368;6.788;2023-03-14T02:16:38;5.50;;;1.42;;
11931;SDS011;6025;51.368;6.788;2023-03-14T02:21:34;5.28;;;1.17;;
11931;SDS011;6025;51.368;6.788;2023-03-14T02:26:34;3.72;;;1.23;;
11931;SDS011;6025;51.368;6.788;2023-03-14T02:31:29;10.65;;;1.42;;
11931;SDS011;6025;51.368;6.788;2023-03-14T02:36:21;7.50;;;1.65;;
11931;SDS011;6025;51.368;6.788;2023-03-14T02:41:13;5.15;;;1.10;;
11931;SDS011;6025;51.368;6.788;2023-03-14T02:46:05;5.40;;;1.42;;
11931;SDS011;6025;51.368;6.788;2023-03-14T02:50:59;8.32;;;1.30;;
11931;SDS011;6025;51.368;6.788;2023-03-14T02:55:51;6.10;;;1.30;;
11931;SDS011;6025;51.368;6.788;2023-03-14T03:00:43;5.53;;;1.65;;
11931;SDS011;6025;51.368;6.788;2023-03-14T03:05:34;8.35;;;1.60;;
11931;SDS011;6025;51.368;6.788;2023-03-14T03:10:27;4.97;;;1.10;;
11931;SDS011;6025;51.368;6.788;2023-03-14T03:15:19;5.53;;;1.10;;
11931;SDS011;6025;51.368;6.788;2023-03-14T03:20:11;5.05;;;1.10;;
11931;SDS011;6025;51.368;6.788;2023-03-14T03:25:03;6.35;;;1.23;;
11931;SDS011;6025;51.368;6.788;2023-03-14T03:29:56;5.57;;;1.52;;
11931;SDS011;6025;51.368;6.788;2023-03-14T03:34:48;7.20;;;1.40;;
11931;SDS011;6025;51.368;6.788;2023-03-14T03:39:39;5.55;;;1.25;;
11931;SDS011;6025;51.368;6.788;2023-03-14T03:44:31;6.93;;;1.60;;
11931;SDS011;6025;51.368;6.788;2023-03-14T03:49:24;7.85;;;1.50;;
11931;SDS011;6025;51.368;6.788;2023-03-14T03:54:19;5.68;;;1.20;;
11931;SDS011;6025;51.368;6.788;2023-03-14T03:59:11;6.70;;;1.35;;
11931;SDS011;6025;51.368;6.788;2023-03-14T04:04:02;5.72;;;1.67;;
11931;SDS011;6025;51.368;6.788;2023-03-14T04:08:55;4.78;;;1.13;;
11931;SDS011;6025;51.368;6.788;2023-03-14T04:13:47;4.55;;;0.80;;
11931;SDS011;6025;51.368;6.788;2023-03-14T04:18:38;3.57;;;1.07;;
11931;SDS011;6025;51.368;6.788;2023-03-14T04:23:30;2.70;;;0.80;;
11931;SDS011;6025;51.368;6.788;2023-03-14T04:28:23;2.17;;;0.60;;
11931;SDS011;6025;51.368;6.788;2023-03-14T04:33:14;4.00;;;0.73;;
11931;SDS011;6025;51.368;6.788;2023-03-14T04:38:07;0.97;;;0.50;;
11931;SDS011;6025;51.368;6.788;2023-03-14T04:42:58;0.60;;;0.33;;
11931;SDS011;6025;51.368;6.788;2023-03-14T04:47:51;1.20;;;0.67;;
11931;SDS011;6025;51.368;6.788;2023-03-14T04:52:43;1.50;;;0.57;;
11931;SDS011;6025;51.368;6.788;2023-03-14T04:57:34;2.53;;;0.70;;
11931;SDS011;6025;51.368;6.788;2023-03-14T05:02:26;1.90;;;0.60;;
11931;SDS011;6025;51.368;6.788;2023-03-14T05:07:19;3.33;;;0.90;;
11931;SDS011;6025;51.368;6.788;2023-03-14T05:12:10;0.40;;;0.40;;
11931;SDS011;6025;51.368;6.788;2023-03-14T05:17:02;1.47;;;0.60;;
11931;SDS011;6025;51.368;6.788;2023-03-14T05:21:53;1.20;;;0.63;;
11931;SDS011;6025;51.368;6.788;2023-03-14T05:26:46;0.80;;;0.57;;
11931;SDS011;6025;51.368;6.788;2023-03-14T05:31:38;2.33;;;0.90;;
11931;SDS011;6025;51.368;6.788;2023-03-14T05:36:29;2.47;;;1.00;;
11931;SDS011;6025;51.368;6.788;2023-03-14T05:41:21;2.13;;;0.93;;
11931;SDS011;6025;51.368;6.788;2023-03-14T05:46:14;2.50;;;0.70;;
11931;SDS011;6025;51.368;6.788;2023-03-14T05:51:06;2.22;;;1.20;;
11931;SDS011;6025;51.368;6.788;2023-03-14T05:55:57;1.63;;;1.20;;
11931;SDS011;6025;51.368;6.788;2023-03-14T06:00:49;2.57;;;0.90;;
11931;SDS011;6025;51.368;6.788;2023-03-14T06:05:42;2.17;;;0.83;;
11931;SDS011;6025;51.368;6.788;2023-03-14T06:10:34;3.70;;;0.90;;
11931;SDS011;6025;51.368;6.788;2023-03-14T06:15:26;3.53;;;0.67;;
11931;SDS011;6025;51.368;6.788;2023-03-14T06:20:17;1.50;;;0.50;;
11931;SDS011;6025;51.368;6.788;2023-03-14T06:25:10;1.47;;;0.73;;
11931;SDS011;6025;51.368;6.788;2023-03-14T06:30:02;0.90;;;0.50;;
11931;SDS011;6025;51.368;6.788;2023-03-14T06:34:54;1.10;;;0.40;;
11931;SDS011;6025;51.368;6.788;2023-03-14T06:39:47;1.23;;;0.60;;
11931;SDS011;6025;51.368;6.788;2023-03-14T06:44:40;0.85;;;0.60;;
11931;SDS011;6025;51.368;6.788;2023-03-14T06:49:31;1.95;;;0.60;;
11931;SDS011;6025;51.368;6.788;2023-03-14T06:54:23;1.42;;;0.40;;
11931;SDS011;6025;51.368;6.788;2023-03-14T06:59:14;0.73;;;0.30;;
11931;SDS011;6025;51.368;6.788;2023-03-14T07:04:07;0.57;;;0.40;;
11931;SDS011;6025;51.368;6.788;2023-03-14T07:08:59;0.40;;;0.30;;
11931;SDS011;6025;51.368;6.788;2023-03-14T07:13:51;2.28;;;0.45;;
11931;SDS011;6025;51.368;6.788;2023-03-14T07:18:43;0.80;;;0.40;;
11931;SDS011;6025;51.368;6.788;2023-03-14T07:23:36;0.98;;;0.60;;
11931;SDS011;6025;51.368;6.788;2023-03-14T07:28:27;1.53;;;0.50;;
11931;SDS011;6025;51.368;6.788;2023-03-14T07:33:19;0.68;;;0.50;;
11931;SDS011;6025;51.368;6.788;2023-03-14T07:38:11;1.15;;;0.50;;
11931;SDS011;6025;51.368;6.788;2023-03-14T07:43:03;0.52;;;0.50;;
11931;SDS011;6025;51.368;6.788;2023-03-14T07:47:55;0.55;;;0.50;;
11931;SDS011;6025;51.368;6.788;2023-03-14T07:52:47;1.08;;;0.60;;
11931;SDS011;6025;51.368;6.788;2023-03-14T07:57:39;1.70;;;0.70;;
11931;SDS011;6025;51.368;6.788;2023-03-14T08:02:32;1.02;;;0.80;;
11931;SDS011;6025;51.368;6.788;2023-03-14T08:07:23;0.88;;;0.77;;
11931;SDS011;6025;51.368;6.788;2023-03-14T08:12:15;1.17;;;1.00;;
11931;SDS011;6025;51.368;6.788;2023-03-14T08:17:07;2.22;;;1.10;;
11931;SDS011;6025;51.368;6.788;2023-03-14T08:22:00;2.22;;;0.93;;
11931;SDS011;6025;51.368;6.788;2023-03-14T08:26:52;3.60;;;1.40;;
11931;SDS011;6025;51.368;6.788;2023-03-14T08:31:43;1.27;;;1.17;;
11931;SDS011;6025;51.368;6.788;2023-03-14T08:36:35;2.58;;;1.60;;
11931;SDS011;6025;51.368;6.788;2023-03-14T08:41:28;2.70;;;1.52;;
11931;SDS011;6025;51.368;6.788;2023-03-14T08:46:19;2.13;;;1.60;;
11931;SDS011;6025;51.368;6.788;2023-03-14T08:51:12;3.15;;;1.77;;
11931;SDS011;6025;51.368;6.788;2023-03-14T08:56:04;2.40;;;1.40;;
11931;SDS011;6025;51.368;6.788;2023-03-14T09:00:58;1.73;;;1.20;;
11931;SDS011;6025;51.368;6.788;2023-03-14T09:05:49;2.33;;;1.77;;
11931;SDS011;6025;51.368;6.788;2023-03-14T09:10:41;2.55;;;1.77;;
11931;SDS011;6025;51.368;6.788;2023-03-14T09:15:33;3.15;;;2.05;;
11931;SDS011;6025;51.368;6.788;2023-03-14T09:20:26;1.50;;;0.82;;
11931;SDS011;6025;51.368;6.788;2023-03-14T09:25:17;2.27;;;1.00;;
11931;SDS011;6025;51.368;6.788;2023-03-14T09:30:09;1.90;;;0.50;;
11931;SDS011;6025;51.368;6.788;2023-03-14T09:35:02;0.50;;;0.50;;
11931;SDS011;6025;51.368;6.788;2023-03-14T09:39:55;1.77;;;0.70;;
11931;SDS011;6025;51.368;6.788;2023-03-14T09:44:50;1.00;;;0.90;;
11931;SDS011;6025;51.368;6.788;2023-03-14T09:49:44;1.37;;;0.97;;
11931;SDS011;6025;51.368;6.788;2023-03-14T09:54:36;2.23;;;1.30;;
11931;SDS011;6025;51.368;6.788;2023-03-14T09:59:31;2.67;;;1.40;;
11931;SDS011;6025;51.368;6.788;2023-03-14T10:04:23;1.80;;;1.57;;
11931;SDS011;6025;51.368;6.788;2023-03-14T10:09:15;2.87;;;1.90;;
11931;SDS011;6025;51.368;6.788;2023-03-14T10:14:10;2.50;;;2.23;;
11931;SDS011;6025;51.368;6.788;2023-03-14T10:19:05;2.93;;;2.20;;
11931;SDS011;6025;51.368;6.788;2023-03-14T10:24:07;2.83;;;2.40;;
11931;SDS011;6025;51.368;6.788;2023-03-14T10:29:01;2.43;;;1.50;;
11931;SDS011;6025;51.368;6.788;2023-03-14T10:33:57;3.37;;;1.97;;
11931;SDS011;6025;51.368;6.788;2023-03-14T10:38:52;1.50;;;1.40;;
11931;SDS011;6025;51.368;6.788;2023-03-14T10:43:49;0.90;;;0.87;;
11931;SDS011;6025;51.368;6.788;2023-03-14T10:48:42;3.97;;;1.10;;
11931;SDS011;6025;51.368;6.788;2023-03-14T10:53:38;2.73;;;1.40;;
11931;SDS011;6025;51.368;6.788;2023-03-14T10:58:35;1.83;;;1.10;;
11931;SDS011;6025;51.368;6.788;2023-03-14T11:03:29;3.87;;;1.20;;
11931;SDS011;6025;51.368;6.788;2023-03-14T11:08:24;5.27;;;1.63;;
11931;SDS011;6025;51.368;6.788;2023-03-14T11:13:18;1.10;;;0.90;;
11931;SDS011;6025;51.368;6.788;2023-03-14T11:18:21;4.23;;;1.07;;
11931;SDS011;6025;51.368;6.788;2023-03-14T11:23:23;3.93;;;1.30;;
11931;SDS011;6025;51.368;6.788;2023-03-14T11:28:17;3.20;;;1.03;;
11931;SDS011;6025;51.368;6.788;2023-03-14T11:33:13;7.77;;;1.80;;
11931;SDS011;6025;51.368;6.788;2023-03-14T11:38:12;2.40;;;1.10;;
11931;SDS011;6025;51.368;6.788;2023-03-14T11:43:10;2.80;;;1.20;;
11931;SDS011;6025;51.368;6.788;2023-03-14T11:48:13;1.97;;;0.90;;
11931;SDS011;6025;51.368;6.788;2023-03-14T11:53:09;3.37;;;1.23;;
11931;SDS011;6025;51.368;6.788;2023-03-14T11:58:09;4.03;;;1.37;;
11931;SDS011;6025;51.368;6.788;2023-03-14T12:03:05;2.87;;;1.17;;
11931;SDS011;6025;51.368;6.788;2023-03-14T12:08:07;2.90;;;1.33;;
11931;SDS011;6025;51.368;6.788;2023-03-14T12:13:29;5.00;;;1.60;;
11931;SDS011;6025;51.368;6.788;2023-03-14T12:18:26;6.37;;;3.43;;
11931;SDS011;6025;51.368;6.788;2023-03-14T12:23:19;6.53;;;2.80;;
11931;SDS011;6025;51.368;6.788;2023-03-14T12:28:16;4.78;;;2.40;;
11931;SDS011;6025;51.368;6.788;2023-03-14T12:38:25;9.03;;;3.57;;
11931;SDS011;6025;51.368;6.788;2023-03-14T12:43:24;5.50;;;2.50;;
11931;SDS011;6025;51.368;6.788;2023-03-14T12:48:18;6.30;;;1.50;;
11931;SDS011;6025;51.368;6.788;2023-03-14T12:58:39;8.43;;;2.20;;
11931;SDS011;6025;51.368;6.788;2023-03-14T13:03:39;11.43;;;3.13;;
11931;SDS011;6025;51.368;6.788;2023-03-14T13:08:36;7.30;;;2.50;;
11931;SDS011;6025;51.368;6.788;2023-03-14T13:13:30;8.70;;;2.20;;
11931;SDS011;6025;51.368;6.788;2023-03-14T13:18:27;8.50;;;2.27;;
11931;SDS011;6025;51.368;6.788;2023-03-14T13:23:21;10.47;;;2.20;;
11931;SDS011;6025;51.368;6.788;2023-03-14T13:28:14;13.37;;;2.27;;
11931;SDS011;6025;51.368;6.788;2023-03-14T13:33:11;11.17;;;2.43;;
11931;SDS011;6025;51.368;6.788;2023-03-14T13:38:03;14.07;;;2.93;;
11931;SDS011;6025;51.368;6.788;2023-03-14T13:43:02;13.93;;;3.30;;
11931;SDS011;6025;51.368;6.788;2023-03-14T13:47:55;11.10;;;3.27;;
11931;SDS011;6025;51.368;6.788;2023-03-14T13:52:48;11.18;;;2.75;;
11931;SDS011;6025;51.368;6.788;2023-03-14T13:57:47;11.68;;;2.42;;
11931;SDS011;6025;51.368;6.788;2023-03-14T14:02:41;10.10;;;2.58;;
11931;SDS011;6025;51.368;6.788;2023-03-14T14:07:32;7.50;;;2.60;;
11931;SDS011;6025;51.368;6.788;2023-03-14T14:12:26;16.35;;;2.75;;
11931;SDS011;6025;51.368;6.788;2023-03-14T14:17:19;11.00;;;2.53;;
11931;SDS011;6025;51.368;6.788;2023-03-14T14:22:13;8.48;;;2.38;;
11931;SDS011;6025;51.368;6.788;2023-03-14T14:27:08;10.40;;;2.47;;
11931;SDS011;6025;51.368;6.788;2023-03-14T14:32:09;11.13;;;2.20;;
11931;SDS011;6025;51.368;6.788;2023-03-14T14:37:02;7.93;;;1.70;;
11931;SDS011;6025;51.368;6.788;2023-03-14T14:41:54;7.28;;;1.80;;
11931;SDS011;6025;51.368;6.788;2023-03-14T14:46:46;8.05;;;1.90;;
11931;SDS011;6025;51.368;6.788;2023-03-14T14:51:40;8.85;;;1.65;;
11931;SDS011;6025;51.368;6.788;2023-03-14T14:56:35;5.88;;;1.65;;
11931;SDS011;6025;51.368;6.788;2023-03-14T15:01:30;6.05;;;1.75;;
11931;SDS011;6025;51.368;6.788;2023-03-14T15:06:24;8.05;;;2.05;;
11931;SDS011;6025;51.368;6.788;2023-03-14T15:11:21;8.80;;;1.73;;
11931;SDS011;6025;51.368;6.788;2023-03-14T15:16:14;6.70;;;1.75;;
11931;SDS011;6025;51.368;6.788;2023-03-14T15:21:08;6.10;;;1.70;;
11931;SDS011;6025;51.368;6.788;2023-03-14T15:26:00;4.53;;;1.40;;
11931;SDS011;6025;51.368;6.788;2023-03-14T15:30:54;4.60;;;1.65;;
11931;SDS011;6025;51.368;6.788;2023-03-14T15:35:47;7.47;;;1.70;;
11931;SDS011;6025;51.368;6.788;2023-03-14T15:40:39;3.55;;;1.33;;
11931;SDS011;6025;51.368;6.788;2023-03-14T15:45:31;4.13;;;1.30;;
11931;SDS011;6025;51.368;6.788;2023-03-14T15:50:24;7.00;;;1.50;;
11931;SDS011;6025;51.368;6.788;2023-03-14T15:55:16;5.20;;;1.57;;
11931;SDS011;6025;51.368;6.788;2023-03-14T16:00:09;4.53;;;1.37;;
11931;SDS011;6025;51.368;6.788;2023-03-14T16:05:05;4.23;;;1.40;;
11931;SDS011;6025;51.368;6.788;2023-03-14T16:09:58;8.03;;;2.73;;
11931;SDS011;6025;51.368;6.788;2023-03-14T16:14:49;5.10;;;1.33;;
11931;SDS011;6025;51.368;6.788;2023-03-14T16:19:41;4.63;;;1.37;;
11931;SDS011;6025;51.368;6.788;2023-03-14T16:24:32;5.97;;;1.37;;
11931;SDS011;6025;51.368;6.788;2023-03-14T16:29:25;4.90;;;1.20;;
11931;SDS011;6025;51.368;6.788;2023-03-14T16:34:17;6.33;;;1.50;;
11931;SDS011;6025;51.368;6.788;2023-03-14T16:39:08;6.40;;;1.77;;
11931;SDS011;6025;51.368;6.788;2023-03-14T16:44:00;2.77;;;1.13;;
11931;SDS011;6025;51.368;6.788;2023-03-14T16:48:53;8.70;;;1.50;;
11931;SDS011;6025;51.368;6.788;2023-03-14T16:53:45;5.60;;;1.50;;
11931;SDS011;6025;51.368;6.788;2023-03-14T16:58:37;3.50;;;1.27;;
11931;SDS011;6025;51.368;6.788;2023-03-14T17:03:29;6.27;;;1.30;;
11931;SDS011;6025;51.368;6.788;2023-03-14T17:08:22;5.80;;;1.90;;
11931;SDS011;6025;51.368;6.788;2023-03-14T17:13:13;3.70;;;1.30;;
11931;SDS011;6025;51.368;6.788;2023-03-14T17:18:05;4.47;;;1.70;;
11931;SDS011;6025;51.368;6.788;2023-03-14T17:22:57;8.77;;;1.50;;
11931;SDS011;6025;51.368;6.788;2023-03-14T17:27:49;3.73;;;1.03;;
11931;SDS011;6025;51.368;6.788;2023-03-14T17:32:41;8.40;;;2.27;;
11931;SDS011;6025;51.368;6.788;2023-03-14T17:37:33;6.90;;;1.70;;
11931;SDS011;6025;51.368;6.788;2023-03-14T17:42:24;3.37;;;1.47;;
11931;SDS011;6025;51.368;6.788;2023-03-14T17:47:17;4.60;;;1.60;;
11931;SDS011;6025;51.368;6.788;2023-03-14T17:52:08;7.03;;;1.87;;
11931;SDS011;6025;51.368;6.788;2023-03-14T17:57:02;5.90;;;1.57;;
11931;SDS011;6025;51.368;6.788;2023-03-14T18:01:53;8.23;;;1.63;;
11931;SDS011;6025;51.368;6.788;2023-03-14T18:06:46;6.87;;;1.67;;
11931;SDS011;6025;51.368;6.788;2023-03-14T18:11:38;4.17;;;1.60;;
11931;SDS011;6025;51.368;6.788;2023-03-14T18:16:29;5.77;;;1.67;;
11931;SDS011;6025;51.368;6.788;2023-03-14T18:21:21;4.93;;;1.63;;
11931;SDS011;6025;51.368;6.788;2023-03-14T18:26:14;4.77;;;1.30;;
11931;SDS011;6025;51.368;6.788;2023-03-14T18:31:07;4.40;;;1.60;;
11931;SDS011;6025;51.368;6.788;2023-03-14T18:35:59;5.07;;;1.80;;
11931;SDS011;6025;51.368;6.788;2023-03-14T18:40:51;4.50;;;1.43;;
11931;SDS011;6025;51.368;6.788;2023-03-14T18:45:44;5.83;;;1.53;;
11931;SDS011;6025;51.368;6.788;2023-03-14T18:50:35;5.83;;;1.60;;
11931;SDS011;6025;51.368;6.788;2023-03-14T18:55:27;6.63;;;1.60;;
11931;SDS011;6025;51.368;6.788;2023-03-14T19:00:19;4.67;;;1.50;;
11931;SDS011;6025;51.368;6.788;2023-03-14T19:05:12;7.20;;;1.60;;
11931;SDS011;6025;51.368;6.788;2023-03-14T19:10:04;8.07;;;1.70;;
11931;SDS011;6025;51.368;6.788;2023-03-14T19:14:56;5.73;;;1.50;;
11931;SDS011;6025;51.368;6.788;2023-03-14T19:19:48;7.83;;;1.67;;
11931;SDS011;6025;51.368;6.788;2023-03-14T19:24:43;4.23;;;1.23;;
11931;SDS011;6025;51.368;6.788;2023-03-14T19:29:34;5.73;;;1.67;;
11931;SDS011;6025;51.368;6.788;2023-03-14T19:34:31;6.57;;;1.83;;
11931;SDS011;6025;51.368;6.788;2023-03-14T19:39:22;4.13;;;1.60;;
11931;SDS011;6025;51.368;6.788;2023-03-14T19:44:15;4.87;;;1.40;;
11931;SDS011;6025;51.368;6.788;2023-03-14T19:49:07;7.20;;;1.50;;
11931;SDS011;6025;51.368;6.788;2023-03-14T19:53:59;7.17;;;1.53;;
11931;SDS011;6025;51.368;6.788;2023-03-14T19:58:52;5.47;;;1.40;;
11931;SDS011;6025;51.368;6.788;2023-03-14T20:03:45;5.23;;;1.60;;
11931;SDS011;6025;51.368;6.788;2023-03-14T20:08:36;9.60;;;1.30;;
11931;SDS011;6025;51.368;6.788;2023-03-14T20:13:28;4.33;;;1.27;;
11931;SDS011;6025;51.368;6.788;2023-03-14T20:18:19;6.17;;;1.47;;
11931;SDS011;6025;51.368;6.788;2023-03-14T20:23:14;7.13;;;1.70;;
11931;SDS011;6025;51.368;6.788;2023-03-14T20:28:05;5.93;;;1.60;;
11931;SDS011;6025;51.368;6.788;2023-03-14T20:32:57;5.80;;;1.30;;
11931;SDS011;6025;51.368;6.788;2023-03-14T20:37:49;6.17;;;1.33;;
11931;SDS011;6025;51.368;6.788;2023-03-14T20:42:43;7.40;;;1.60;;
11931;SDS011;6025;51.368;6.788;2023-03-14T20:47:34;5.03;;;1.33;;
11931;SDS011;6025;51.368;6.788;2023-03-14T20:52:26;4.87;;;1.80;;
11931;SDS011;6025;51.368;6.788;2023-03-14T20:57:18;8.63;;;1.70;;
11931;SDS011;6025;51.368;6.788;2023-03-14T21:02:11;5.87;;;1.77;;
11931;SDS011;6025;51.368;6.788;2023-03-14T21:07:03;9.73;;;2.07;;
11931;SDS011;6025;51.368;6.788;2023-03-14T21:11:54;5.23;;;1.60;;
11931;SDS011;6025;51.368;6.788;2023-03-14T21:16:46;8.40;;;1.60;;
11931;SDS011;6025;51.368;6.788;2023-03-14T21:21:39;8.27;;;1.80;;
11931;SDS011;6025;51.368;6.788;2023-03-14T21:26:30;6.20;;;1.57;;
11931;SDS011;6025;51.368;6.788;2023-03-14T21:31:22;7.83;;;1.80;;
11931;SDS011;6025;51.368;6.788;2023-03-14T21:36:14;7.10;;;1.70;;
11931;SDS011;6025;51.368;6.788;2023-03-14T21:41:06;8.23;;;1.70;;
11931;SDS011;6025;51.368;6.788;2023-03-14T21:45:58;9.97;;;2.10;;
11931;SDS011;6025;51.368;6.788;2023-03-14T21:50:49;9.73;;;1.70;;
11931;SDS011;6025;51.368;6.788;2023-03-14T21:55:41;7.73;;;2.00;;
11931;SDS011;6025;51.368;6.788;2023-03-14T22:00:35;8.83;;;1.80;;
11931;SDS011;6025;51.368;6.788;2023-03-14T22:05:26;7.37;;;1.97;;
11931;SDS011;6025;51.368;6.788;2023-03-14T22:10:18;6.53;;;1.60;;
11931;SDS011;6025;51.368;6.788;2023-03-14T22:15:10;6.40;;;2.10;;
11931;SDS011;6025;51.368;6.788;2023-03-14T22:20:04;6.43;;;1.70;;
11931;SDS011;6025;51.368;6.788;2023-03-14T22:24:59;9.60;;;1.77;;
11931;SDS011;6025;51.368;6.788;2023-03-14T22:29:50;5.10;;;1.70;;
11931;SDS011;6025;51.368;6.788;2023-03-14T22:34:42;10.20;;;1.90;;
11931;SDS011;6025;51.368;6.788;2023-03-14T22:39:35;6.00;;;1.43;;
11931;SDS011;6025;51.368;6.788;2023-03-14T22:44:26;6.27;;;1.80;;
11931;SDS011;6025;51.368;6.788;2023-03-14T22:49:21;7.47;;;2.00;;
11931;SDS011;6025;51.368;6.788;2023-03-14T22:54:13;6.87;;;1.90;;
11931;SDS011;6025;51.368;6.788;2023-03-14T22:59:05;5.70;;;1.70;;
11931;SDS011;6025;51.368;6.788;2023-03-14T23:03:57;6.20;;;1.77;;
11931;SDS011;6025;51.368;6.788;2023-03-14T23:08:49;6.43;;;1.60;;
11931;SDS011;6025;51.368;6.788;2023-03-14T23:13:40;6.60;;;1.87;;
11931;SDS011;6025;51.368;6.788;2023-03-14T23:18:33;9.50;;;1.77;;
11931;SDS011;6025;51.368;6.788;2023-03-14T23:23:25;8.73;;;1.80;;
11931;SDS011;6025;51.368;6.788;2023-03-14T23:28:16;5.77;;;1.77;;
11931;SDS011;6025;51.368;6.788;2023-03-14T23:33:08;5.07;;;1.60;;
11931;SDS011;6025;51.368;6.788;2023-03-14T23:38:01;6.03;;;1.70;;
11931;SDS011;6025;51.368;6.788;2023-03-14T23:42:52;10.43;;;2.10;;
11931;SDS011;6025;51.368;6.788;2023-03-14T23:47:44;6.53;;;1.77;;
11931;SDS011;6025;51.368;6.788;2023-03-14T23:52:35;5.77;;;2.00;;
11931;SDS011;6025;51.368;6.788;2023-03-14T23:57:28;6.10;;;1.70;;
